createdAt,value
2023-02-16T00:01:30.330Z,35.28
2023-02-16T00:04:13.480Z,35.25
2023-02-16T00:06:45.877Z,34.10
2023-02-16T00:09:18.719Z,34.75
2023-02-16T00:12:11.836Z,37.25
2023-02-16T00:14:43.935Z,36.28
2023-02-16T00:17:15.962Z,34.00
2023-02-16T00:19:47.975Z,33.70
2023-02-16T00:22:19.960Z,35.80
2023-02-16T00:24:52.306Z,36.42
2023-02-16T00:27:24.275Z,35.72
2023-02-16T00:29:56.396Z,33.47
2023-02-16T00:32:28.539Z,34.95
2023-02-16T00:35:01.127Z,35.97
2023-02-16T00:37:33.077Z,36.97
2023-02-16T00:40:05.591Z,34.67
2023-02-16T00:42:38.311Z,34.80
2023-02-16T00:45:21.685Z,37.45
2023-02-16T00:47:54.987Z,38.78
2023-02-16T00:50:35.331Z,36.65
2023-02-16T00:53:07.318Z,39.20
2023-02-16T00:55:42.042Z,40.42
2023-02-16T00:58:26.168Z,38.05
2023-02-16T01:01:08.913Z,37.95
2023-02-16T01:03:41.422Z,37.50
2023-02-16T01:06:31.796Z,36.40
2023-02-16T01:09:35.138Z,38.35
2023-02-16T01:12:17.353Z,36.33
2023-02-16T01:14:53.861Z,36.10
2023-02-16T01:17:25.923Z,36.88
2023-02-16T01:19:57.928Z,40.17
2023-02-16T01:22:33.494Z,36.10
2023-02-16T01:25:05.966Z,35.97
2023-02-16T01:27:39.158Z,36.22
2023-02-16T01:30:21.960Z,35.00
2023-02-16T01:32:54.101Z,36.00
2023-02-16T01:35:33.174Z,35.60
2023-02-16T01:38:05.228Z,35.85
2023-02-16T01:40:57.874Z,31.75
2023-02-16T01:43:46.983Z,34.63
2023-02-16T01:46:25.902Z,33.83
2023-02-16T01:48:57.844Z,31.77
2023-02-16T01:51:50.624Z,32.85
2023-02-16T01:54:31.799Z,31.25
2023-02-16T01:57:05.816Z,33.83
2023-02-16T01:59:44.062Z,35.03
2023-02-16T02:02:32.859Z,33.55
2023-02-16T02:05:37.096Z,32.72
2023-02-16T02:08:19.252Z,33.67
2023-02-16T02:11:14.395Z,33.63
2023-02-16T02:13:55.190Z,32.25
2023-02-16T02:16:28.832Z,33.40
2023-02-16T02:19:00.998Z,31.77
2023-02-16T02:22:16.776Z,30.10
2023-02-16T02:24:57.203Z,32.72
2023-02-16T02:27:34.450Z,30.67
2023-02-16T02:30:27.811Z,31.98
2023-02-16T02:33:32.867Z,31.40
2023-02-16T02:36:40.532Z,32.22
2023-02-16T02:39:31.289Z,31.20
2023-02-16T02:42:34.127Z,33.83
2023-02-16T02:45:23.347Z,32.03
2023-02-16T02:47:55.348Z,32.22
2023-02-16T02:51:12.274Z,32.38
2023-02-16T02:54:16.280Z,30.52
2023-02-16T02:57:45.174Z,30.05
2023-02-16T03:00:41.819Z,30.83
2023-02-16T03:03:20.860Z,31.50
2023-02-16T03:06:13.944Z,30.48
2023-02-16T03:08:51.993Z,31.15
2023-02-16T03:11:48.288Z,32.80
2023-02-16T03:14:31.278Z,30.80
2023-02-16T03:17:35.577Z,30.58
2023-02-16T03:20:31.619Z,30.52
2023-02-16T03:23:24.584Z,31.20
2023-02-16T03:26:15.431Z,30.65
2023-02-16T03:29:06.743Z,30.55
2023-02-16T03:31:40.294Z,29.38
2023-02-16T03:34:12.906Z,31.98
2023-02-16T03:36:52.913Z,29.65
2023-02-16T03:39:27.936Z,29.80
2023-02-16T03:41:59.933Z,30.95
2023-02-16T03:44:31.996Z,30.40
2023-02-16T03:47:04.025Z,29.85
2023-02-16T03:49:35.965Z,30.38
2023-02-16T03:52:07.940Z,31.23
2023-02-16T03:54:39.928Z,30.45
2023-02-16T03:57:11.861Z,30.33
2023-02-16T03:59:43.898Z,31.67
2023-02-16T04:02:15.977Z,31.13
2023-02-16T04:04:48.052Z,29.73
2023-02-16T04:07:20.134Z,31.75
2023-02-16T04:09:52.084Z,29.40
2023-02-16T04:12:36.355Z,31.13
2023-02-16T04:15:12.814Z,32.30
2023-02-16T04:17:45.314Z,31.85
2023-02-16T04:20:20.709Z,32.38
2023-02-16T04:22:53.538Z,32.78
2023-02-16T04:25:26.237Z,31.27
2023-02-16T04:27:58.374Z,32.58
2023-02-16T04:30:32.486Z,32.75
2023-02-16T04:33:04.688Z,32.22
2023-02-16T04:35:36.693Z,33.63
2023-02-16T04:38:08.758Z,32.97
2023-02-16T04:40:40.833Z,34.00
2023-02-16T04:43:12.804Z,34.08
2023-02-16T04:45:44.806Z,32.15
2023-02-16T04:48:16.757Z,35.58
2023-02-16T04:50:48.757Z,33.92
2023-02-16T04:53:20.745Z,34.47
2023-02-16T04:55:52.736Z,34.00
2023-02-16T04:58:24.823Z,34.30
2023-02-16T05:00:56.781Z,34.33
2023-02-16T05:03:28.942Z,35.50
2023-02-16T05:06:01.162Z,34.85
2023-02-16T05:08:33.143Z,36.88
2023-02-16T05:11:23.840Z,33.92
2023-02-16T05:14:18.805Z,36.00
2023-02-16T05:16:51.152Z,34.25
2023-02-16T05:19:23.160Z,34.95
2023-02-16T05:21:55.159Z,36.47
2023-02-16T05:24:28.540Z,34.88
2023-02-16T05:27:02.109Z,37.78
2023-02-16T05:29:34.727Z,36.47
2023-02-16T05:32:06.821Z,35.78
2023-02-16T05:34:38.959Z,35.25
2023-02-16T05:37:12.161Z,35.45
2023-02-16T05:39:44.831Z,36.63
2023-02-16T05:42:16.833Z,35.55
2023-02-16T05:44:48.967Z,35.33
2023-02-16T05:47:20.950Z,38.03
2023-02-16T05:49:52.942Z,37.03
2023-02-16T05:52:24.887Z,35.95
2023-02-16T05:54:56.857Z,36.88
2023-02-16T05:57:28.909Z,38.00
2023-02-16T06:00:01.257Z,37.88
2023-02-16T06:02:33.279Z,37.35
2023-02-16T06:05:05.589Z,36.97
2023-02-16T06:07:37.546Z,37.08
2023-02-16T06:10:10.094Z,37.83
2023-02-16T06:12:44.602Z,36.85
2023-02-16T06:15:18.062Z,38.47
2023-02-16T06:17:51.467Z,36.50
2023-02-16T06:20:23.450Z,35.80
2023-02-16T06:22:55.474Z,37.60
2023-02-16T06:25:27.524Z,37.80
2023-02-16T06:27:59.562Z,38.03
2023-02-16T06:30:31.806Z,36.78
2023-02-16T06:33:05.747Z,34.88
2023-02-16T06:35:37.730Z,35.92
2023-02-16T06:38:09.857Z,38.70
2023-02-16T06:40:41.878Z,36.72
2023-02-16T06:43:14.285Z,37.95
2023-02-16T06:45:47.273Z,36.05
2023-02-16T06:48:19.449Z,38.28
2023-02-16T06:50:52.083Z,36.33
2023-02-16T06:53:25.520Z,38.00
2023-02-16T06:55:57.609Z,36.97
2023-02-16T06:58:29.637Z,37.13
2023-02-16T07:01:01.669Z,36.80
2023-02-16T07:03:34.050Z,38.28
2023-02-16T07:06:07.052Z,37.72
2023-02-16T07:08:39.068Z,35.90
2023-02-16T07:11:11.506Z,36.10
2023-02-16T07:13:44.009Z,35.67
2023-02-16T07:16:16.535Z,36.53
2023-02-16T07:18:49.005Z,38.05
2023-02-16T07:21:21.048Z,36.28
2023-02-16T07:23:53.094Z,37.22
2023-02-16T07:26:25.079Z,34.53
2023-02-16T07:28:57.018Z,36.55
2023-02-16T07:31:29.173Z,37.35
2023-02-16T07:34:01.373Z,36.20
2023-02-16T07:36:33.547Z,38.05
2023-02-16T07:39:05.805Z,38.33
2023-02-16T07:41:37.835Z,38.63
2023-02-16T07:44:09.911Z,37.28
2023-02-16T07:46:41.872Z,38.40
2023-02-16T07:49:13.837Z,37.15
2023-02-16T07:51:45.892Z,38.80
2023-02-16T07:54:17.828Z,37.65
2023-02-16T07:56:49.840Z,37.97
2023-02-16T07:59:21.899Z,37.47
2023-02-16T08:01:54.009Z,35.63
2023-02-16T08:04:26.317Z,38.35
2023-02-16T08:06:58.463Z,37.67
2023-02-16T08:09:30.518Z,37.60
2023-02-16T08:12:02.699Z,39.17
2023-02-16T08:14:34.778Z,39.05
2023-02-16T08:17:08.129Z,37.65
2023-02-16T08:19:40.826Z,36.42
2023-02-16T08:22:12.852Z,38.17
2023-02-16T08:24:45.048Z,35.60
2023-02-16T08:27:17.233Z,36.38
2023-02-16T08:29:49.278Z,36.13
2023-02-16T08:32:21.414Z,36.58
2023-02-16T08:34:53.532Z,36.30
2023-02-16T08:37:25.555Z,36.45
2023-02-16T08:40:00.770Z,34.35
2023-02-16T08:42:32.998Z,34.83
2023-02-16T08:45:07.477Z,36.65
2023-02-16T08:47:39.515Z,35.75
2023-02-16T08:50:11.693Z,37.22
2023-02-16T08:52:43.721Z,37.03
2023-02-16T08:55:15.789Z,37.10
2023-02-16T08:57:48.137Z,35.63
2023-02-16T09:00:35.846Z,35.72
2023-02-16T09:03:07.988Z,35.35
2023-02-16T09:05:40.531Z,35.10
2023-02-16T09:08:12.923Z,37.33
2023-02-16T09:10:45.061Z,34.85
2023-02-16T09:13:17.064Z,36.10
2023-02-16T09:15:49.594Z,37.55
2023-02-16T09:18:21.696Z,34.13
2023-02-16T09:20:53.858Z,35.47
2023-02-16T09:23:26.118Z,35.88
2023-02-16T09:26:02.129Z,35.17
2023-02-16T09:28:36.366Z,35.33
2023-02-16T09:31:25.559Z,35.40
2023-02-16T09:34:17.045Z,36.03
2023-02-16T09:36:50.372Z,34.55
2023-02-16T09:39:22.935Z,36.03
2023-02-16T09:42:28.446Z,37.00
2023-02-16T09:45:14.281Z,35.28
2023-02-16T09:47:49.855Z,34.45
2023-02-16T09:50:50.715Z,35.40
2023-02-16T09:53:39.623Z,33.55
2023-02-16T09:56:28.189Z,34.75
2023-02-16T09:59:25.806Z,34.67
2023-02-16T10:02:32.578Z,35.10
2023-02-16T10:05:08.562Z,34.22
2023-02-16T10:08:09.513Z,33.78
2023-02-16T10:10:57.131Z,34.55
2023-02-16T10:13:47.293Z,32.75
2023-02-16T10:16:28.574Z,33.00
2023-02-16T10:19:09.476Z,33.53
2023-02-16T10:21:48.525Z,33.53
2023-02-16T10:24:20.954Z,36.25
2023-02-16T10:27:10.060Z,35.03
2023-02-16T10:29:42.820Z,34.40
2023-02-16T10:32:37.283Z,34.30
2023-02-16T10:35:15.417Z,34.80
2023-02-16T10:38:09.379Z,34.85
2023-02-16T10:41:00.988Z,33.30
2023-02-16T10:44:01.763Z,34.30
2023-02-16T10:46:44.366Z,34.63
2023-02-16T10:49:18.020Z,35.90
2023-02-16T10:51:52.367Z,34.90
2023-02-16T10:54:31.898Z,35.42
2023-02-16T10:57:20.560Z,37.10
2023-02-16T10:59:54.897Z,34.85
2023-02-16T11:02:41.680Z,35.28
2023-02-16T11:05:39.408Z,36.67
2023-02-16T11:08:12.969Z,36.35
2023-02-16T11:10:52.699Z,34.00
2023-02-16T11:13:34.299Z,36.10
2023-02-16T11:16:21.133Z,34.58
2023-02-16T11:19:13.553Z,34.88
2023-02-16T11:21:52.151Z,38.08
2023-02-16T11:24:32.089Z,34.83
2023-02-16T11:27:19.600Z,36.67
2023-02-16T11:29:51.712Z,34.80
2023-02-16T11:32:24.440Z,35.28
2023-02-16T11:34:57.706Z,37.53
2023-02-16T11:37:34.147Z,36.20
2023-02-16T11:40:21.659Z,38.40
2023-02-16T11:42:59.863Z,36.80
2023-02-16T11:45:35.599Z,35.60
2023-02-16T11:48:32.687Z,36.92
2023-02-16T11:51:09.262Z,35.20
2023-02-16T11:53:44.532Z,37.65
2023-02-16T11:56:29.847Z,38.75
2023-02-16T11:59:14.964Z,36.60
2023-02-16T12:02:17.437Z,36.53
2023-02-16T12:05:26.294Z,37.55
2023-02-16T12:08:58.335Z,36.35
2023-02-16T12:11:55.528Z,36.78
2023-02-16T12:15:26.585Z,37.80
2023-02-16T12:18:20.657Z,37.45
2023-02-16T12:21:45.637Z,38.90
2023-02-16T12:24:47.873Z,38.67
2023-02-16T12:27:41.958Z,39.00
2023-02-16T12:31:00.506Z,38.40
2023-02-16T12:33:57.675Z,40.55
2023-02-16T12:37:04.949Z,42.47
2023-02-16T12:39:46.296Z,43.60
2023-02-16T12:42:46.988Z,43.58
2023-02-16T12:45:28.250Z,41.53
2023-02-16T12:48:11.163Z,42.40
2023-02-16T12:50:46.261Z,41.38
2023-02-16T12:53:48.254Z,43.05
2023-02-16T12:56:27.614Z,42.97
2023-02-16T12:59:27.129Z,40.37
2023-02-16T13:02:01.924Z,40.87
2023-02-16T13:04:49.155Z,40.95
2023-02-16T13:07:38.482Z,42.92
2023-02-16T13:10:47.051Z,42.40
2023-02-16T13:13:25.564Z,43.67
2023-02-16T13:16:30.411Z,46.05
2023-02-16T13:19:03.284Z,40.33
2023-02-16T13:21:51.272Z,43.05
2023-02-16T13:25:08.029Z,43.33
2023-02-16T13:28:11.193Z,43.13
2023-02-16T13:31:01.739Z,41.72
2023-02-16T13:33:58.365Z,39.70
2023-02-16T13:37:25.529Z,42.67
2023-02-16T13:40:23.232Z,40.70
2023-02-16T13:43:01.352Z,42.90
2023-02-16T13:45:40.599Z,42.22
2023-02-16T13:48:48.237Z,42.37
2023-02-16T13:51:24.200Z,42.63
2023-02-16T13:53:58.701Z,44.80
2023-02-16T13:56:33.294Z,43.95
2023-02-16T13:59:17.394Z,43.50
2023-02-16T14:01:53.746Z,42.35
2023-02-16T14:04:25.670Z,45.13
2023-02-16T14:07:03.798Z,46.10
2023-02-16T14:09:38.556Z,42.55
2023-02-16T14:12:16.848Z,43.35
2023-02-16T14:14:51.835Z,45.13
2023-02-16T14:17:31.218Z,46.45
2023-02-16T14:20:09.321Z,46.07
2023-02-16T14:22:51.206Z,45.38
2023-02-16T14:25:23.120Z,45.40
2023-02-16T14:27:59.284Z,44.53
2023-02-16T14:30:35.794Z,46.22
2023-02-16T14:33:22.817Z,46.40
2023-02-16T14:36:00.569Z,42.80
2023-02-16T14:38:41.557Z,43.45
2023-02-16T14:41:35.568Z,48.83
2023-02-16T14:44:07.479Z,47.80
2023-02-16T14:47:22.087Z,48.15
2023-02-16T14:50:30.816Z,46.88
2023-02-16T14:53:28.021Z,49.35
2023-02-16T14:56:14.499Z,49.95
2023-02-16T14:59:07.073Z,49.53
2023-02-16T15:01:42.243Z,49.55
2023-02-16T15:04:32.158Z,49.58
2023-02-16T15:07:05.552Z,48.72
2023-02-16T15:09:42.706Z,48.55
2023-02-16T15:12:21.726Z,49.10
2023-02-16T15:15:04.140Z,52.33
2023-02-16T15:17:45.659Z,50.78
2023-02-16T15:20:24.966Z,54.38
2023-02-16T15:23:02.368Z,50.80
2023-02-16T15:25:41.100Z,52.15
2023-02-16T15:28:26.057Z,50.22
2023-02-16T15:31:07.559Z,51.53
2023-02-16T15:33:54.677Z,51.60
2023-02-16T15:36:43.533Z,48.55
2023-02-16T15:39:41.309Z,50.53
2023-02-16T15:42:29.133Z,51.40
2023-02-16T15:45:01.160Z,50.70
2023-02-16T15:47:34.076Z,47.38
2023-02-16T15:50:14.383Z,47.92
2023-02-16T15:55:18.741Z,45.85
2023-02-16T15:57:51.326Z,48.20
2023-02-16T16:00:25.096Z,47.97
2023-02-16T16:03:00.830Z,49.85
2023-02-16T16:05:42.048Z,47.55
2023-02-16T16:08:17.502Z,48.08
2023-02-16T16:10:49.761Z,48.83
2023-02-16T16:13:26.919Z,50.15
2023-02-16T16:16:02.247Z,48.38
2023-02-16T16:18:50.766Z,47.65
2023-02-16T16:21:34.349Z,49.05
2023-02-16T16:24:10.028Z,50.30
2023-02-16T16:26:56.806Z,48.85
2023-02-16T16:29:47.618Z,47.35
2023-02-16T16:32:28.902Z,50.50
2023-02-16T16:35:01.017Z,47.05
2023-02-16T16:37:37.417Z,47.28
2023-02-16T16:40:18.817Z,48.15
2023-02-16T16:43:28.524Z,49.67
2023-02-16T16:46:30.439Z,50.95
2023-02-16T16:49:06.363Z,48.05
2023-02-16T16:51:44.091Z,48.65
2023-02-16T16:54:35.879Z,48.70
2023-02-16T16:57:17.498Z,49.25
2023-02-16T16:59:49.475Z,47.10
2023-02-16T17:02:21.426Z,48.97
2023-02-16T17:04:53.424Z,48.03
2023-02-16T17:07:25.417Z,50.67
2023-02-16T17:09:57.803Z,50.95
2023-02-16T17:12:30.099Z,53.10
2023-02-16T17:15:03.276Z,50.72
2023-02-16T17:17:35.553Z,50.20
2023-02-16T17:20:14.909Z,49.25
2023-02-16T17:22:47.212Z,51.73
2023-02-16T17:25:19.728Z,50.47
2023-02-16T17:27:51.861Z,49.58
2023-02-16T17:30:24.136Z,48.78
2023-02-16T17:32:56.190Z,52.58
2023-02-16T17:35:28.852Z,49.67
2023-02-16T17:38:19.601Z,52.78
2023-02-16T17:40:54.513Z,51.33
2023-02-16T17:43:27.628Z,51.25
2023-02-16T17:46:04.756Z,52.20
2023-02-16T17:48:38.228Z,54.25
2023-02-16T17:51:17.263Z,52.97
2023-02-16T17:53:50.520Z,53.00
2023-02-16T17:56:25.100Z,54.50
2023-02-16T17:58:57.267Z,52.78
2023-02-16T18:01:30.030Z,53.42
2023-02-16T18:04:04.183Z,53.10
2023-02-16T18:06:36.919Z,52.67
2023-02-16T18:09:16.067Z,53.40
2023-02-16T18:11:48.214Z,54.20
2023-02-16T18:14:20.338Z,53.47
2023-02-16T18:16:53.106Z,52.47
2023-02-16T18:19:26.668Z,53.50
2023-02-16T18:21:58.716Z,53.47
2023-02-16T18:24:31.655Z,52.25
2023-02-16T18:27:03.834Z,53.55
2023-02-16T18:29:35.883Z,56.65
2023-02-16T18:32:08.441Z,54.35
2023-02-16T18:34:40.706Z,54.65
2023-02-16T18:37:12.736Z,55.03
2023-02-16T18:39:44.892Z,54.40
2023-02-16T18:42:17.181Z,53.92
2023-02-16T18:44:50.756Z,52.90
2023-02-16T18:47:22.875Z,51.60
2023-02-16T18:49:56.417Z,53.40
2023-02-16T18:52:28.475Z,52.33
2023-02-16T18:55:00.581Z,50.53
2023-02-16T18:57:32.620Z,47.30
2023-02-16T19:00:06.925Z,50.13
2023-02-16T19:02:41.062Z,52.15
2023-02-16T19:05:13.244Z,52.50
2023-02-16T19:07:45.230Z,51.80
2023-02-16T19:10:19.079Z,50.65
2023-02-16T19:12:51.590Z,52.50
2023-02-16T19:15:23.851Z,50.35
2023-02-16T19:17:55.872Z,52.95
2023-02-16T19:20:29.731Z,53.05
2023-02-16T19:23:01.746Z,52.72
2023-02-16T19:25:33.714Z,49.42
2023-02-16T19:28:05.858Z,52.00
2023-02-16T19:30:38.076Z,51.60
2023-02-16T19:33:10.115Z,51.92
2023-02-16T19:35:42.163Z,53.00
2023-02-16T19:38:15.461Z,48.22
2023-02-16T19:40:48.348Z,52.30
2023-02-16T19:43:21.327Z,49.35
2023-02-16T19:45:53.500Z,52.95
2023-02-16T19:48:25.500Z,54.22
2023-02-16T19:50:59.532Z,52.28
2023-02-16T19:53:32.678Z,54.05
2023-02-16T19:56:07.634Z,56.72
2023-02-16T19:58:39.970Z,54.90
2023-02-16T20:01:24.466Z,55.58
2023-02-16T20:03:58.153Z,53.70
2023-02-16T20:06:32.997Z,57.08
2023-02-16T20:09:05.700Z,56.75
2023-02-16T20:11:39.665Z,55.22
2023-02-16T20:14:12.565Z,58.75
2023-02-16T20:16:44.662Z,57.20
2023-02-16T20:19:16.650Z,58.90
2023-02-16T20:21:48.683Z,58.45
2023-02-16T20:24:20.864Z,62.50
2023-02-16T20:26:52.906Z,62.78
2023-02-16T20:29:25.192Z,59.13
2023-02-16T20:31:58.745Z,63.05
2023-02-16T20:34:32.319Z,63.65
2023-02-16T20:37:04.491Z,60.13
2023-02-16T20:39:36.532Z,60.55
2023-02-16T20:42:08.913Z,60.60
2023-02-16T20:44:43.547Z,62.03
2023-02-16T20:47:18.891Z,65.28
2023-02-16T20:50:00.634Z,61.80
2023-02-16T20:52:32.656Z,64.47
2023-02-16T20:55:04.842Z,64.22
2023-02-16T20:57:37.692Z,65.85
2023-02-16T21:00:17.223Z,65.45
2023-02-16T21:02:53.082Z,65.05
2023-02-16T21:05:25.150Z,64.30
2023-02-16T21:07:57.325Z,64.95
2023-02-16T21:10:29.382Z,65.93
2023-02-16T21:13:01.411Z,63.10
2023-02-16T21:15:36.704Z,65.32
2023-02-16T21:18:08.772Z,65.13
2023-02-16T21:20:41.108Z,61.95
2023-02-16T21:23:14.630Z,62.20
2023-02-16T21:25:46.896Z,62.83
2023-02-16T21:28:21.425Z,61.05
2023-02-16T21:30:53.993Z,64.03
2023-02-16T21:33:26.191Z,62.97
2023-02-16T21:36:38.938Z,63.40
2023-02-16T21:39:13.045Z,60.60
2023-02-16T21:41:45.182Z,61.60
2023-02-16T21:44:18.174Z,63.85
2023-02-16T21:46:59.298Z,65.50
2023-02-16T21:49:31.687Z,62.45
2023-02-16T21:52:03.897Z,64.45
2023-02-16T21:54:54.411Z,63.00
2023-02-16T21:57:26.461Z,59.65
2023-02-16T21:59:58.494Z,59.55
2023-02-16T22:02:30.461Z,60.30
2023-02-16T22:05:02.448Z,58.33
2023-02-16T22:07:34.471Z,59.22
2023-02-16T22:10:07.479Z,58.00
2023-02-16T22:12:39.489Z,62.15
2023-02-16T22:15:11.478Z,61.47
2023-02-16T22:17:43.608Z,57.67
2023-02-16T22:20:17.164Z,59.05
2023-02-16T22:22:52.583Z,58.75
2023-02-16T22:25:24.564Z,59.60
2023-02-16T22:27:56.602Z,62.30
2023-02-16T22:30:28.730Z,58.33
2023-02-16T22:33:00.736Z,58.25
2023-02-16T22:35:33.840Z,61.90
2023-02-16T22:38:05.956Z,58.17
2023-02-16T22:40:38.264Z,58.40
2023-02-16T22:43:10.395Z,59.85
2023-02-16T22:45:42.472Z,58.28
2023-02-16T22:48:14.523Z,60.05
2023-02-16T22:51:01.389Z,57.67
2023-02-16T22:53:34.530Z,56.55
2023-02-16T22:56:09.820Z,57.90
2023-02-16T22:58:42.047Z,55.47
2023-02-16T23:01:20.268Z,58.33
2023-02-16T23:03:57.492Z,57.25
2023-02-16T23:06:36.622Z,56.78
2023-02-16T23:09:21.595Z,54.88
2023-02-16T23:11:53.637Z,55.78
2023-02-16T23:14:26.623Z,53.63
2023-02-16T23:16:59.447Z,52.72
2023-02-16T23:19:32.567Z,51.75
2023-02-16T23:22:04.538Z,51.28
2023-02-16T23:24:36.688Z,49.45
2023-02-16T23:27:08.759Z,47.58
2023-02-16T23:29:40.685Z,48.72
2023-02-16T23:32:12.645Z,50.17
2023-02-16T23:34:44.659Z,46.17
2023-02-16T23:37:16.702Z,48.97
2023-02-16T23:39:48.669Z,50.45
2023-02-16T23:42:21.528Z,46.00
2023-02-16T23:44:57.140Z,44.90
2023-02-16T23:47:29.284Z,44.28
2023-02-16T23:50:01.488Z,45.05
2023-02-16T23:52:36.370Z,44.80
2023-02-16T23:55:16.397Z,43.75
2023-02-16T23:57:48.375Z,44.10
